createdAt,value
2022-10-02T00:02:02.252Z,100210.72
2022-10-02T00:04:38.795Z,100221.63
2022-10-02T00:07:08.127Z,100218.81
2022-10-02T00:09:43.468Z,100208.16
2022-10-02T00:12:15.469Z,100212.72
2022-10-02T00:14:47.456Z,100211.44
2022-10-02T00:17:22.052Z,100209.66
2022-10-02T00:19:56.066Z,100220.09
2022-10-02T00:22:38.746Z,100220.69
2022-10-02T00:25:14.788Z,100216.31
2022-10-02T00:28:00.421Z,100223.69
2022-10-02T00:30:33.506Z,100231.84
2022-10-02T00:33:12.615Z,100222.38
2022-10-02T00:35:58.385Z,100223.81
2022-10-02T00:38:39.469Z,100228.06
2022-10-02T00:41:54.919Z,100226.63
2022-10-02T00:44:39.460Z,100229.81
2022-10-02T00:47:16.508Z,100237.75
2022-10-02T00:50:04.540Z,100233.94
2022-10-02T00:52:49.563Z,100237.50
2022-10-02T00:55:31.409Z,100233.16
2022-10-02T00:58:10.298Z,100228.53
2022-10-02T01:00:39.281Z,100225.91
2022-10-02T01:03:17.166Z,100240.13
2022-10-02T01:05:45.499Z,100229.00
2022-10-02T01:08:15.149Z,100202.28
2022-10-02T01:10:43.959Z,100210.59
2022-10-02T01:13:11.835Z,100201.84
2022-10-02T01:15:45.868Z,100201.00
2022-10-02T01:18:15.201Z,100205.25
2022-10-02T01:20:46.304Z,100223.88
2022-10-02T01:23:25.593Z,100205.13
2022-10-02T01:25:54.960Z,100223.78
2022-10-02T01:28:23.572Z,100222.59
2022-10-02T01:30:55.972Z,100234.34
2022-10-02T01:33:24.422Z,100243.72
2022-10-02T01:35:52.599Z,100245.84
2022-10-02T01:38:24.777Z,100241.59
2022-10-02T01:40:54.040Z,100245.75
2022-10-02T01:43:25.576Z,100241.94
2022-10-02T01:46:02.710Z,100235.88
2022-10-02T01:48:46.590Z,100225.91
2022-10-02T01:51:20.957Z,100227.53
2022-10-02T01:53:56.321Z,100227.81
2022-10-02T01:56:37.504Z,100233.75
2022-10-02T01:59:16.902Z,100226.16
2022-10-02T02:01:51.307Z,100230.06
2022-10-02T02:04:24.995Z,100237.78
2022-10-02T02:07:00.205Z,100232.22
2022-10-02T02:09:39.030Z,100227.09
2022-10-02T02:12:15.941Z,100242.50
2022-10-02T02:14:53.032Z,100249.88
2022-10-02T02:17:27.544Z,100244.19
2022-10-02T02:20:03.234Z,100239.56
2022-10-02T02:22:35.414Z,100241.34
2022-10-02T02:25:08.199Z,100248.72
2022-10-02T02:27:49.247Z,100241.59
2022-10-02T02:30:19.153Z,100244.09
2022-10-02T02:32:51.400Z,100238.97
2022-10-02T02:35:26.293Z,100245.03
2022-10-02T02:37:59.878Z,100244.09
2022-10-02T02:40:32.173Z,100237.66
2022-10-02T02:43:05.873Z,100234.81
2022-10-02T02:45:39.337Z,100239.44
2022-10-02T02:48:10.286Z,100241.06
2022-10-02T02:50:43.858Z,100249.94
2022-10-02T02:53:15.723Z,100249.44
2022-10-02T02:55:48.996Z,100252.28
2022-10-02T02:58:23.950Z,100256.94
2022-10-02T03:00:52.248Z,100249.09
2022-10-02T03:03:20.441Z,100260.97
2022-10-02T03:05:51.937Z,100253.47
2022-10-02T03:08:25.374Z,100255.38
2022-10-02T03:11:06.731Z,100253.94
2022-10-02T03:13:49.712Z,100254.75
2022-10-02T03:16:32.158Z,100258.28
2022-10-02T03:19:14.391Z,100259.22
2022-10-02T03:21:52.033Z,100257.06
2022-10-02T03:24:25.073Z,100253.88
2022-10-02T03:27:00.479Z,100254.47
2022-10-02T03:29:36.223Z,100260.53
2022-10-02T03:32:06.651Z,100244.75
2022-10-02T03:34:36.461Z,100239.03
2022-10-02T03:37:06.303Z,100238.94
2022-10-02T03:39:34.374Z,100239.00
2022-10-02T03:42:02.823Z,100237.31
2022-10-02T03:44:32.429Z,100242.78
2022-10-02T03:47:00.327Z,100235.25
2022-10-02T03:49:28.906Z,100237.16
2022-10-02T03:51:59.051Z,100238.69
2022-10-02T03:54:32.021Z,100246.06
2022-10-02T03:57:06.141Z,100249.97
2022-10-02T03:59:44.092Z,100255.56
2022-10-02T04:02:22.416Z,100249.00
2022-10-02T04:04:56.409Z,100258.25
2022-10-02T04:07:30.693Z,100257.06
2022-10-02T04:10:15.641Z,100249.44
2022-10-02T04:12:49.379Z,100252.56
2022-10-02T04:15:24.723Z,100253.59
2022-10-02T04:17:59.215Z,100249.88
2022-10-02T04:20:33.937Z,100240.03
2022-10-02T04:23:09.066Z,100244.88
2022-10-02T04:25:45.214Z,100237.53
2022-10-02T04:28:15.784Z,100247.81
2022-10-02T04:30:45.132Z,100249.00
2022-10-02T04:33:15.756Z,100257.94
2022-10-02T04:35:53.631Z,100250.72
2022-10-02T04:38:33.663Z,100244.19
2022-10-02T04:41:26.913Z,100244.41
2022-10-02T04:44:12.418Z,100249.63
2022-10-02T04:47:07.457Z,100247.78
2022-10-02T04:49:57.514Z,100252.50
2022-10-02T04:52:52.626Z,100260.31
2022-10-02T04:55:39.158Z,100259.00
2022-10-02T04:58:38.631Z,100255.22
2022-10-02T05:01:17.632Z,100260.19
2022-10-02T05:04:05.415Z,100271.22
2022-10-02T05:06:50.016Z,100265.19
2022-10-02T05:09:29.030Z,100256.41
2022-10-02T05:12:25.991Z,100253.69
2022-10-02T05:15:26.231Z,100253.19
2022-10-02T05:18:14.572Z,100248.47
2022-10-02T05:21:18.668Z,100245.50
2022-10-02T05:24:02.616Z,100255.28
2022-10-02T05:26:47.653Z,100257.78
2022-10-02T05:29:32.376Z,100262.41
2022-10-02T05:32:17.947Z,100256.81
2022-10-02T05:35:01.106Z,100257.66
2022-10-02T05:37:46.351Z,100254.72
2022-10-02T05:40:23.017Z,100253.63
2022-10-02T05:43:03.208Z,100257.19
2022-10-02T05:45:36.671Z,100261.16
2022-10-02T05:48:07.783Z,100273.38
2022-10-02T05:50:37.764Z,100271.03
2022-10-02T05:53:18.623Z,100277.09
2022-10-02T05:55:54.085Z,100271.72
2022-10-02T05:58:27.946Z,100270.97
2022-10-02T06:01:03.348Z,100279.41
2022-10-02T06:03:39.473Z,100290.22
2022-10-02T06:06:14.104Z,100281.50
2022-10-02T06:08:52.971Z,100287.47
2022-10-02T06:11:27.765Z,100286.88
2022-10-02T06:14:00.955Z,100286.66
2022-10-02T06:16:35.475Z,100282.84
2022-10-02T06:19:09.003Z,100294.94
2022-10-02T06:21:44.775Z,100284.50
2022-10-02T06:24:21.555Z,100289.72
2022-10-02T06:26:54.613Z,100292.94
2022-10-02T06:29:27.529Z,100284.50
2022-10-02T06:32:13.507Z,100286.66
2022-10-02T06:34:45.757Z,100282.19
2022-10-02T06:37:40.534Z,100287.28
2022-10-02T06:40:35.075Z,100287.38
2022-10-02T06:43:07.447Z,100288.50
2022-10-02T06:45:43.142Z,100288.41
2022-10-02T06:48:24.548Z,100293.78
2022-10-02T06:51:03.769Z,100289.06
2022-10-02T06:53:50.605Z,100293.38
2022-10-02T06:56:39.095Z,100294.22
2022-10-02T06:59:24.647Z,100305.59
2022-10-02T07:02:04.007Z,100300.06
2022-10-02T07:04:45.951Z,100296.72
2022-10-02T07:07:25.805Z,100302.56
2022-10-02T07:10:11.814Z,100303.16
2022-10-02T07:13:13.060Z,100307.19
2022-10-02T07:16:15.908Z,100312.97
2022-10-02T07:19:00.509Z,100315.47
2022-10-02T07:21:39.712Z,100312.53
2022-10-02T07:24:26.948Z,100303.16
2022-10-02T07:26:58.674Z,100311.00
2022-10-02T07:29:42.878Z,100310.38
2022-10-02T07:32:43.346Z,100318.13
2022-10-02T07:35:30.278Z,100317.53
2022-10-02T07:38:13.429Z,100314.69
2022-10-02T07:40:52.037Z,100313.38
2022-10-02T07:43:40.664Z,100315.72
2022-10-02T07:46:18.278Z,100319.63
2022-10-02T07:49:02.244Z,100325.69
2022-10-02T07:51:50.920Z,100325.59
2022-10-02T07:54:45.597Z,100326.78
2022-10-02T07:57:26.449Z,100329.78
2022-10-02T07:59:59.134Z,100331.41
2022-10-02T08:02:34.881Z,100325.25
2022-10-02T08:05:06.952Z,100323.34
2022-10-02T08:07:34.899Z,100322.63
2022-10-02T08:10:07.599Z,100318.50
2022-10-02T08:12:41.035Z,100319.75
2022-10-02T08:15:15.636Z,100318.97
2022-10-02T08:17:50.011Z,100316.94
2022-10-02T08:20:29.151Z,100326.53
2022-10-02T08:23:04.313Z,100329.88
2022-10-02T08:25:39.809Z,100329.94
2022-10-02T08:28:17.918Z,100316.56
2022-10-02T08:30:45.732Z,100319.53
2022-10-02T08:33:19.228Z,100322.84
2022-10-02T08:35:53.678Z,100310.25
2022-10-02T08:38:36.893Z,100319.06
2022-10-02T08:41:55.391Z,100316.81
2022-10-02T08:44:53.450Z,100310.97
2022-10-02T08:48:11.552Z,100304.69
2022-10-02T08:51:10.304Z,100315.00
2022-10-02T08:54:11.410Z,100320.84
2022-10-02T08:56:59.040Z,100326.31
2022-10-02T08:59:50.800Z,100331.66
2022-10-02T09:02:58.317Z,100332.97
2022-10-02T09:05:56.796Z,100339.63
2022-10-02T09:09:04.779Z,100337.84
2022-10-02T09:12:01.199Z,100322.16
2022-10-02T09:14:49.912Z,100334.28
2022-10-02T09:17:32.321Z,100327.38
2022-10-02T09:20:20.168Z,100328.59
2022-10-02T09:23:34.171Z,100323.59
2022-10-02T09:26:09.266Z,100322.88
2022-10-02T09:29:14.163Z,100322.97
2022-10-02T09:32:21.845Z,100316.91
2022-10-02T09:35:24.727Z,100308.03
2022-10-02T09:38:44.936Z,100316.19
2022-10-02T09:41:58.412Z,100327.47
2022-10-02T09:45:04.422Z,100328.81
2022-10-02T09:48:08.614Z,100336.41
2022-10-02T09:50:59.159Z,100329.97
2022-10-02T09:54:14.863Z,100335.22
2022-10-02T09:57:02.625Z,100338.19
2022-10-02T10:00:11.450Z,100329.75
2022-10-02T10:03:26.903Z,100333.06
2022-10-02T10:06:34.057Z,100323.56
2022-10-02T10:09:24.699Z,100319.78
2022-10-02T10:12:49.538Z,100316.72
2022-10-02T10:15:40.825Z,100318.13
2022-10-02T10:18:48.065Z,100320.50
2022-10-02T10:22:10.526Z,100305.66
2022-10-02T10:25:10.914Z,100294.72
2022-10-02T10:28:01.699Z,100302.91
2022-10-02T10:31:04.208Z,100302.94
2022-10-02T10:33:58.103Z,100304.88
2022-10-02T10:37:14.988Z,100311.84
2022-10-02T10:40:25.759Z,100325.94
2022-10-02T10:43:16.810Z,100330.19
2022-10-02T10:46:05.972Z,100348.34
2022-10-02T10:49:02.935Z,100351.09
2022-10-02T10:51:35.934Z,100351.34
2022-10-02T10:54:52.065Z,100353.13
2022-10-02T10:57:36.917Z,100359.94
2022-10-02T11:00:17.486Z,100361.66
2022-10-02T11:03:22.764Z,100353.63
2022-10-02T11:06:40.910Z,100344.69
2022-10-02T11:09:44.479Z,100352.78
2022-10-02T11:12:29.850Z,100350.59
2022-10-02T11:15:17.627Z,100350.41
2022-10-02T11:18:01.853Z,100337.78
2022-10-02T11:20:48.708Z,100338.53
2022-10-02T11:23:43.525Z,100345.19
2022-10-02T11:26:35.559Z,100351.84
2022-10-02T11:29:38.388Z,100348.38
2022-10-02T11:32:50.164Z,100347.91
2022-10-02T11:35:48.392Z,100350.41
2022-10-02T11:38:35.621Z,100360.38
2022-10-02T11:41:29.173Z,100352.03
2022-10-02T11:44:14.141Z,100358.59
2022-10-02T11:47:12.212Z,100359.69
2022-10-02T11:50:13.892Z,100366.66
2022-10-02T11:53:11.353Z,100367.97
2022-10-02T11:55:56.241Z,100372.63
2022-10-02T11:58:42.018Z,100365.69
2022-10-02T12:01:20.083Z,100369.53
2022-10-02T12:04:04.114Z,100372.56
2022-10-02T12:06:45.400Z,100366.66
2022-10-02T12:09:23.879Z,100362.63
2022-10-02T12:12:05.030Z,100344.69
2022-10-02T12:14:37.364Z,100345.00
2022-10-02T12:17:19.284Z,100347.81
2022-10-02T12:20:24.304Z,100341.03
2022-10-02T12:23:21.350Z,100343.50
2022-10-02T12:26:15.901Z,100348.13
2022-10-02T12:28:56.120Z,100351.78
2022-10-02T12:31:32.795Z,100355.28
2022-10-02T12:34:09.230Z,100354.72
2022-10-02T12:36:56.304Z,100354.19
2022-10-02T12:39:41.675Z,100352.25
2022-10-02T12:42:30.940Z,100352.69
2022-10-02T12:45:22.306Z,100354.19
2022-10-02T12:48:19.169Z,100352.41
2022-10-02T12:51:09.022Z,100343.50
2022-10-02T12:53:54.302Z,100345.50
2022-10-02T12:56:53.601Z,100354.53
2022-10-02T12:59:28.460Z,100354.88
2022-10-02T13:02:49.086Z,100353.88
2022-10-02T13:05:54.176Z,100341.66
2022-10-02T13:09:12.680Z,100341.84
2022-10-02T13:11:58.631Z,100333.78
2022-10-02T13:14:42.241Z,100345.31
2022-10-02T13:17:24.269Z,100353.56
2022-10-02T13:20:02.417Z,100354.44
2022-10-02T13:22:41.626Z,100351.69
2022-10-02T13:25:34.561Z,100353.34
2022-10-02T13:28:22.580Z,100350.63
2022-10-02T13:31:01.976Z,100368.03
2022-10-02T13:33:54.132Z,100358.25
2022-10-02T13:36:35.412Z,100358.28
2022-10-02T13:39:14.297Z,100358.94
2022-10-02T13:42:00.599Z,100357.41
2022-10-02T13:44:38.204Z,100353.75
2022-10-02T13:47:23.773Z,100365.28
2022-10-02T13:50:20.364Z,100360.69
2022-10-02T13:53:03.799Z,100370.06
2022-10-02T13:55:35.483Z,100361.66
2022-10-02T13:58:30.114Z,100365.97
2022-10-02T14:01:08.553Z,100358.09
2022-10-02T14:03:50.629Z,100359.97
2022-10-02T14:06:25.687Z,100358.25
2022-10-02T14:09:15.889Z,100358.34
2022-10-02T14:11:59.698Z,100361.59
2022-10-02T14:14:36.548Z,100357.00
2022-10-02T14:17:15.894Z,100355.63
2022-10-02T14:20:18.835Z,100358.25
2022-10-02T14:23:03.282Z,100351.97
2022-10-02T14:25:46.556Z,100356.75
2022-10-02T14:28:31.759Z,100351.78
2022-10-02T14:31:39.596Z,100356.63
2022-10-02T14:34:40.832Z,100355.63
2022-10-02T14:37:35.308Z,100363.34
2022-10-02T14:40:14.130Z,100357.94
2022-10-02T14:43:09.247Z,100362.59
2022-10-02T14:46:17.550Z,100373.22
2022-10-02T14:49:01.188Z,100370.94
2022-10-02T14:51:51.736Z,100375.00
2022-10-02T14:54:33.383Z,100384.22
2022-10-02T14:57:23.366Z,100391.50
2022-10-02T15:00:07.119Z,100388.38
2022-10-02T15:02:46.049Z,100373.16
2022-10-02T15:05:39.958Z,100378.72
2022-10-02T15:08:15.475Z,100374.91
2022-10-02T15:10:43.516Z,100374.19
2022-10-02T15:13:24.630Z,100381.00
2022-10-02T15:16:11.265Z,100382.84
2022-10-02T15:18:45.644Z,100380.03
2022-10-02T15:21:26.257Z,100384.88
2022-10-02T15:23:57.779Z,100383.09
2022-10-02T15:26:41.293Z,100380.13
2022-10-02T15:29:26.881Z,100380.38
2022-10-02T15:32:28.494Z,100388.22
2022-10-02T15:35:09.707Z,100384.91
2022-10-02T15:37:47.129Z,100391.78
2022-10-02T15:40:29.910Z,100382.75
2022-10-02T15:43:01.664Z,100389.88
2022-10-02T15:45:49.023Z,100385.25
2022-10-02T15:48:35.116Z,100381.06
2022-10-02T15:51:13.789Z,100378.53
2022-10-02T15:53:55.209Z,100383.44
2022-10-02T15:56:57.444Z,100384.09
2022-10-02T15:59:37.497Z,100388.75
2022-10-02T16:02:21.295Z,100387.94
2022-10-02T16:04:59.703Z,100402.94
2022-10-02T16:07:57.458Z,100401.22
2022-10-02T16:10:26.962Z,100399.09
2022-10-02T16:13:32.912Z,100400.56
2022-10-02T16:16:11.349Z,100412.13
2022-10-02T16:18:55.065Z,100411.53
2022-10-02T16:21:37.436Z,100415.31
2022-10-02T16:24:26.816Z,100414.84
2022-10-02T16:27:21.166Z,100416.06
2022-10-02T16:30:03.250Z,100417.47
2022-10-02T16:32:39.967Z,100429.09
2022-10-02T16:35:46.161Z,100426.81
2022-10-02T16:38:19.181Z,100431.94
2022-10-02T16:40:56.986Z,100430.91
2022-10-02T16:43:40.350Z,100437.03
2022-10-02T16:46:12.398Z,100436.13
2022-10-02T16:48:49.321Z,100440.06
2022-10-02T16:51:33.357Z,100439.97
2022-10-02T16:54:14.098Z,100451.69
2022-10-02T16:56:48.087Z,100456.66
2022-10-02T16:59:21.227Z,100457.50
2022-10-02T17:02:15.982Z,100466.16
2022-10-02T17:04:46.291Z,100467.84
2022-10-02T17:07:37.311Z,100460.75
2022-10-02T17:10:19.492Z,100470.16
2022-10-02T17:12:57.200Z,100471.47
2022-10-02T17:15:33.265Z,100478.47
2022-10-02T20:20:41.776Z,100729.81
2022-10-02T20:32:27.067Z,100740.97
2022-10-02T20:35:00.735Z,100743.03
2022-10-02T20:37:35.145Z,100757.63
2022-10-02T21:18:31.123Z,100791.44
2022-10-02T21:21:33.758Z,100798.22
2022-10-02T21:24:38.103Z,100799.03
2022-10-02T21:27:37.467Z,100804.13
2022-10-02T21:30:13.864Z,100809.81
2022-10-02T21:32:56.595Z,100804.41
